createdAt,value
2022-12-07T00:01:24.898Z,5.60
2022-12-07T00:03:54.229Z,5.20
2022-12-07T00:06:21.618Z,6.00
2022-12-07T00:08:49.074Z,6.37
2022-12-07T00:11:18.727Z,5.27
2022-12-07T00:13:47.087Z,7.00
2022-12-07T00:16:21.854Z,8.10
2022-12-07T00:18:48.985Z,5.67
2022-12-07T00:21:21.868Z,5.20
2022-12-07T00:23:50.292Z,5.47
2022-12-07T00:26:19.486Z,6.30
2022-12-07T00:28:49.124Z,9.03
2022-12-07T00:31:17.307Z,5.90
2022-12-07T00:33:44.677Z,6.07
2022-12-07T00:36:14.659Z,5.30
2022-12-07T00:38:42.313Z,5.87
2022-12-07T00:41:17.869Z,5.83
2022-12-07T00:43:46.590Z,6.00
2022-12-07T00:46:14.254Z,5.07
2022-12-07T00:48:41.420Z,5.10
2022-12-07T00:51:09.036Z,5.60
2022-12-07T00:53:41.076Z,5.97
2022-12-07T00:56:19.868Z,6.10
2022-12-07T00:58:52.353Z,7.17
2022-12-07T01:01:19.156Z,6.00
2022-12-07T01:03:46.077Z,5.47
2022-12-07T01:06:28.297Z,5.63
2022-12-07T01:08:55.560Z,8.57
2022-12-07T01:11:25.567Z,6.20
2022-12-07T01:13:53.991Z,5.83
2022-12-07T01:16:22.187Z,5.67
2022-12-07T01:18:51.141Z,6.10
2022-12-07T01:21:30.602Z,5.20
2022-12-07T01:23:58.801Z,6.93
2022-12-07T01:26:26.750Z,6.60
2022-12-07T01:28:56.082Z,6.30
2022-12-07T01:31:25.724Z,6.13
2022-12-07T01:33:56.684Z,6.33
2022-12-07T01:36:35.788Z,7.03
2022-12-07T01:39:05.966Z,6.90
2022-12-07T01:41:37.201Z,6.83
2022-12-07T01:44:23.651Z,7.40
2022-12-07T01:46:56.809Z,6.83
2022-12-07T01:49:34.815Z,8.87
2022-12-07T01:52:21.421Z,7.37
2022-12-07T01:54:50.617Z,8.57
2022-12-07T01:57:19.087Z,8.80
2022-12-07T01:59:51.911Z,8.20
2022-12-07T02:02:32.941Z,8.93
2022-12-07T02:05:01.559Z,8.50
2022-12-07T02:07:29.804Z,9.43
2022-12-07T02:09:56.670Z,7.93
2022-12-07T02:12:26.097Z,8.40
2022-12-07T02:14:53.490Z,8.10
2022-12-07T02:17:50.994Z,7.63
2022-12-07T02:20:38.968Z,7.90
2022-12-07T02:23:24.428Z,9.00
2022-12-07T02:26:06.060Z,8.13
2022-12-07T02:28:36.699Z,8.23
2022-12-07T02:31:17.609Z,7.80
2022-12-07T02:33:54.711Z,9.07
2022-12-07T02:36:29.622Z,10.33
2022-12-07T02:39:02.165Z,9.77
2022-12-07T02:41:37.110Z,9.63
2022-12-07T02:44:09.747Z,10.67
2022-12-07T02:46:41.800Z,7.83
2022-12-07T02:49:10.152Z,10.23
2022-12-07T02:51:42.275Z,8.43
2022-12-07T02:54:20.567Z,10.43
2022-12-07T02:56:52.842Z,10.20
2022-12-07T02:59:40.429Z,9.80
2022-12-07T03:02:19.322Z,8.43
2022-12-07T03:04:51.899Z,8.70
2022-12-07T03:07:34.004Z,10.53
2022-12-07T03:10:39.459Z,9.53
2022-12-07T03:13:22.024Z,8.77
2022-12-07T03:16:04.438Z,9.50
2022-12-07T03:18:36.685Z,9.70
2022-12-07T03:21:14.431Z,9.67
2022-12-07T03:23:45.835Z,9.70
2022-12-07T03:26:15.992Z,9.13
2022-12-07T03:28:51.852Z,8.73
2022-12-07T03:31:27.891Z,9.67
2022-12-07T03:34:10.339Z,9.10
2022-12-07T03:36:39.255Z,9.57
2022-12-07T03:39:18.704Z,11.50
2022-12-07T03:41:46.493Z,10.03
2022-12-07T03:44:15.179Z,9.37
2022-12-07T03:47:00.460Z,8.90
2022-12-07T03:49:59.365Z,9.20
2022-12-07T03:52:48.189Z,9.53
2022-12-07T03:55:28.176Z,9.80
2022-12-07T03:58:00.417Z,9.37
2022-12-07T04:00:27.552Z,10.97
2022-12-07T04:02:54.983Z,10.93
2022-12-07T04:05:21.861Z,9.53
2022-12-07T04:07:48.740Z,11.73
2022-12-07T04:10:15.649Z,10.60
2022-12-07T04:12:42.409Z,11.50
2022-12-07T04:15:10.165Z,11.50
2022-12-07T04:17:37.114Z,11.70
2022-12-07T04:20:05.152Z,11.63
2022-12-07T04:22:32.526Z,13.70
2022-12-07T04:24:59.270Z,11.00
2022-12-07T04:27:26.008Z,13.30
2022-12-07T04:29:56.678Z,10.97
2022-12-07T04:32:27.629Z,11.97
2022-12-07T04:34:56.061Z,10.47
2022-12-07T04:37:23.517Z,11.63
2022-12-07T04:39:50.312Z,10.43
2022-12-07T04:42:17.269Z,14.30
2022-12-07T04:44:46.509Z,11.03
2022-12-07T04:47:13.265Z,11.37
2022-12-07T04:49:40.166Z,13.63
2022-12-07T04:52:06.926Z,11.63
2022-12-07T04:54:33.769Z,10.80
2022-12-07T04:57:00.644Z,13.17
2022-12-07T04:59:27.568Z,11.77
2022-12-07T05:01:54.421Z,14.03
2022-12-07T05:04:21.333Z,12.50
2022-12-07T05:06:48.095Z,11.10
2022-12-07T05:09:14.824Z,13.53
2022-12-07T05:11:41.913Z,14.83
2022-12-07T05:14:18.255Z,11.03
2022-12-07T05:16:47.418Z,11.30
2022-12-07T05:19:14.391Z,13.03
2022-12-07T05:21:41.926Z,13.50
2022-12-07T05:24:10.733Z,11.03
2022-12-07T05:26:40.110Z,12.80
2022-12-07T05:29:07.167Z,11.77
2022-12-07T05:31:35.258Z,16.00
2022-12-07T05:34:02.445Z,11.63
2022-12-07T05:36:29.764Z,12.17
2022-12-07T05:38:56.727Z,11.67
2022-12-07T05:41:42.346Z,13.23
2022-12-07T05:44:09.340Z,12.33
2022-12-07T05:46:36.162Z,10.83
2022-12-07T05:49:03.465Z,13.60
2022-12-07T05:51:30.267Z,10.00
2022-12-07T05:53:57.167Z,12.10
2022-12-07T05:56:24.179Z,11.23
2022-12-07T05:59:09.625Z,10.57
2022-12-07T06:01:36.395Z,12.00
2022-12-07T06:04:03.299Z,12.17
2022-12-07T06:06:30.212Z,11.83
2022-12-07T06:08:57.012Z,10.77
2022-12-07T06:11:42.571Z,12.70
2022-12-07T06:14:09.451Z,12.50
2022-12-07T06:16:36.339Z,14.50
2022-12-07T06:19:03.143Z,11.73
2022-12-07T06:21:30.062Z,14.97
2022-12-07T06:23:57.288Z,12.13
2022-12-07T06:26:24.149Z,12.60
2022-12-07T06:28:51.079Z,13.03
2022-12-07T06:31:17.911Z,11.60
2022-12-07T06:33:44.791Z,16.47
2022-12-07T06:36:12.681Z,13.27
2022-12-07T06:38:39.581Z,14.93
2022-12-07T06:41:07.506Z,13.83
2022-12-07T06:43:35.005Z,16.90
2022-12-07T06:46:02.079Z,12.80
2022-12-07T06:48:29.526Z,16.00
2022-12-07T06:50:56.294Z,11.57
2022-12-07T06:53:23.806Z,13.77
2022-12-07T06:55:51.048Z,14.97
2022-12-07T06:58:18.536Z,11.03
2022-12-07T07:00:47.210Z,11.90
2022-12-07T07:03:14.115Z,13.20
2022-12-07T07:05:41.155Z,11.03
2022-12-07T07:08:24.372Z,10.90
2022-12-07T07:10:51.862Z,11.13
2022-12-07T07:13:18.841Z,12.23
2022-12-07T07:15:45.914Z,14.00
2022-12-07T07:18:13.015Z,11.10
2022-12-07T07:20:40.179Z,10.77
2022-12-07T07:23:07.169Z,12.67
2022-12-07T07:25:34.509Z,14.40
2022-12-07T07:28:01.798Z,10.83
2022-12-07T07:30:28.983Z,19.27
2022-12-07T07:33:01.628Z,10.37
2022-12-07T07:35:29.535Z,11.23
2022-12-07T07:37:57.672Z,10.17
2022-12-07T07:40:28.225Z,10.97
2022-12-07T07:42:55.594Z,12.70
2022-12-07T07:45:24.934Z,11.47
2022-12-07T07:47:52.427Z,14.07
2022-12-07T07:50:19.745Z,10.20
2022-12-07T07:52:46.791Z,11.63
2022-12-07T07:55:14.064Z,18.07
2022-12-07T07:57:41.626Z,11.03
2022-12-07T08:00:12.062Z,10.80
2022-12-07T08:02:39.116Z,11.97
2022-12-07T08:05:06.509Z,10.97
2022-12-07T08:07:33.494Z,13.10
2022-12-07T08:10:02.502Z,14.20
2022-12-07T08:12:29.601Z,12.93
2022-12-07T08:14:56.320Z,13.53
2022-12-07T08:17:23.111Z,10.20
2022-12-07T08:19:49.916Z,11.80
2022-12-07T08:22:16.720Z,10.40
2022-12-07T08:24:43.623Z,12.07
2022-12-07T08:27:15.846Z,12.73
2022-12-07T08:29:42.649Z,10.10
2022-12-07T08:32:09.941Z,15.33
2022-12-07T08:34:38.001Z,13.67
2022-12-07T08:37:04.971Z,11.67
2022-12-07T08:39:32.737Z,15.47
2022-12-07T08:42:00.204Z,15.97
2022-12-07T08:44:27.171Z,11.93
2022-12-07T08:47:01.179Z,10.87
2022-12-07T08:49:48.190Z,13.80
2022-12-07T08:52:15.375Z,11.23
2022-12-07T08:54:42.563Z,11.60
2022-12-07T08:57:11.048Z,10.03
2022-12-07T08:59:39.189Z,12.10
2022-12-07T09:02:07.349Z,11.23
2022-12-07T09:04:34.204Z,12.90
2022-12-07T09:07:01.284Z,12.40
2022-12-07T09:09:28.439Z,9.70
2022-12-07T09:11:55.250Z,9.40
2022-12-07T09:14:22.220Z,10.17
2022-12-07T09:16:49.428Z,12.93
2022-12-07T09:19:16.233Z,9.60
2022-12-07T09:21:43.101Z,10.30
2022-12-07T09:24:10.692Z,12.87
2022-12-07T09:26:39.093Z,9.53
2022-12-07T09:29:06.326Z,11.13
2022-12-07T09:31:33.197Z,10.57
2022-12-07T09:34:01.666Z,9.30
2022-12-07T09:36:29.410Z,9.63
2022-12-07T09:38:56.852Z,11.07
2022-12-07T09:41:25.521Z,11.97
2022-12-07T09:43:59.722Z,14.97
2022-12-07T09:46:36.124Z,9.63
2022-12-07T09:49:03.560Z,9.17
2022-12-07T09:51:30.758Z,8.30
2022-12-07T09:53:59.525Z,11.07
2022-12-07T09:56:26.698Z,10.13
2022-12-07T09:59:02.035Z,8.80
2022-12-07T10:01:32.394Z,8.27
2022-12-07T10:04:07.995Z,8.87
2022-12-07T10:06:34.786Z,8.10
2022-12-07T10:09:01.800Z,8.67
2022-12-07T10:11:28.597Z,8.57
2022-12-07T10:13:55.549Z,9.50
2022-12-07T10:16:34.329Z,7.90
2022-12-07T10:19:27.551Z,9.63
2022-12-07T10:22:00.388Z,8.50
2022-12-07T10:24:27.343Z,8.47
2022-12-07T10:26:55.496Z,8.27
2022-12-07T10:29:34.327Z,11.93
2022-12-07T10:32:04.736Z,10.00
2022-12-07T10:34:41.023Z,8.67
2022-12-07T10:37:17.804Z,7.67
2022-12-07T10:39:58.254Z,8.47
2022-12-07T10:42:29.180Z,9.73
2022-12-07T10:45:19.127Z,8.93
2022-12-07T10:48:04.633Z,8.93
2022-12-07T10:50:48.798Z,7.17
2022-12-07T10:53:33.747Z,11.50
2022-12-07T10:56:22.144Z,9.23
2022-12-07T10:59:25.597Z,7.80
2022-12-07T11:02:07.930Z,7.73
2022-12-07T11:04:55.449Z,8.13
2022-12-07T11:07:40.237Z,8.63
2022-12-07T11:10:13.207Z,6.73
2022-12-07T11:12:59.183Z,8.50
2022-12-07T11:16:05.154Z,7.47
2022-12-07T11:18:47.640Z,7.43
2022-12-07T11:21:31.620Z,7.67
2022-12-07T11:23:58.921Z,7.53
2022-12-07T11:26:44.613Z,8.53
2022-12-07T11:29:21.348Z,7.83
2022-12-07T11:32:20.531Z,7.20
2022-12-07T11:35:06.130Z,8.57
2022-12-07T11:37:36.420Z,8.47
2022-12-07T11:40:13.410Z,7.20
2022-12-07T11:43:07.566Z,8.73
2022-12-07T11:45:36.090Z,10.10
2022-12-07T11:48:20.989Z,6.27
2022-12-07T11:50:58.076Z,11.07
2022-12-07T11:53:30.867Z,6.53
2022-12-07T11:56:15.858Z,7.27
2022-12-07T11:58:49.598Z,5.73
2022-12-07T12:01:26.386Z,10.17
2022-12-07T12:04:11.428Z,8.73
2022-12-07T12:06:39.604Z,9.10
2022-12-07T12:15:37.828Z,9.70
2022-12-07T12:18:32.240Z,6.50
2022-12-07T12:21:08.017Z,6.93
2022-12-07T12:23:52.472Z,7.27
2022-12-07T12:26:25.163Z,6.13
2022-12-07T12:29:00.273Z,7.50
2022-12-07T12:31:40.251Z,10.77
2022-12-07T12:34:48.544Z,7.83
2022-12-07T12:37:35.676Z,6.60
2022-12-07T12:40:17.945Z,7.53
2022-12-07T12:42:54.667Z,7.80
2022-12-07T12:45:27.442Z,9.37
2022-12-07T12:48:05.373Z,8.80
2022-12-07T12:50:38.754Z,6.03
2022-12-07T12:53:17.808Z,8.27
2022-12-07T12:55:49.975Z,5.77
2022-12-07T12:58:19.537Z,7.30
2022-12-07T13:00:48.795Z,9.43
2022-12-07T13:03:52.575Z,7.20
2022-12-07T13:06:20.975Z,6.47
2022-12-07T13:08:48.401Z,6.20
2022-12-07T13:11:41.104Z,7.10
2022-12-07T13:14:42.005Z,7.53
2022-12-07T13:17:33.739Z,8.27
2022-12-07T13:20:02.938Z,6.23
2022-12-07T13:22:32.648Z,6.53
2022-12-07T13:25:06.067Z,8.20
2022-12-07T13:27:33.272Z,5.50
2022-12-07T13:30:00.419Z,6.97
2022-12-07T13:32:29.566Z,5.67
2022-12-07T13:34:56.355Z,5.97
2022-12-07T13:37:34.966Z,6.43
2022-12-07T13:40:20.826Z,7.53
2022-12-07T13:42:47.586Z,6.83
2022-12-07T13:45:59.317Z,7.50
2022-12-07T13:48:48.090Z,6.43
2022-12-07T13:51:24.443Z,7.77
2022-12-07T13:53:54.688Z,7.77
2022-12-07T13:56:32.724Z,7.83
2022-12-07T13:59:02.455Z,8.50
2022-12-07T14:01:32.353Z,5.93
2022-12-07T14:04:38.554Z,5.97
2022-12-07T14:07:26.991Z,7.30
2022-12-07T14:10:06.099Z,6.23
2022-12-07T14:12:36.666Z,6.00
2022-12-07T14:15:04.894Z,9.90
2022-12-07T14:17:32.206Z,6.80
2022-12-07T14:20:01.320Z,9.83
2022-12-07T14:22:39.693Z,6.97
2022-12-07T14:25:25.374Z,5.47
2022-12-07T14:27:56.418Z,7.27
2022-12-07T14:30:24.996Z,6.10
2022-12-07T14:32:55.488Z,8.47
2022-12-07T14:35:22.396Z,5.00
2022-12-07T14:37:50.757Z,6.37
2022-12-07T14:40:39.205Z,5.33
2022-12-07T14:43:17.321Z,5.63
2022-12-07T14:45:44.742Z,8.97
2022-12-07T14:53:57.526Z,6.13
2022-12-07T14:56:25.572Z,6.17
2022-12-07T14:58:52.693Z,7.20
2022-12-07T15:01:19.530Z,6.80
2022-12-07T15:03:46.688Z,6.93
2022-12-07T15:06:18.633Z,8.13
2022-12-07T15:08:45.672Z,7.33
2022-12-07T15:11:17.229Z,5.97
2022-12-07T15:14:02.715Z,6.83
2022-12-07T15:16:40.703Z,7.60
2022-12-07T15:19:27.873Z,7.67
2022-12-07T15:21:55.616Z,8.67
2022-12-07T15:24:22.737Z,6.90
2022-12-07T15:26:49.496Z,6.90
2022-12-07T15:29:22.525Z,10.67
2022-12-07T15:31:59.190Z,7.30
2022-12-07T15:34:31.871Z,7.40
2022-12-07T15:37:03.079Z,7.33
2022-12-07T15:39:29.955Z,9.47
2022-12-07T15:41:56.786Z,9.43
2022-12-07T15:44:41.810Z,13.10
2022-12-07T15:47:08.643Z,9.90
2022-12-07T15:49:35.457Z,9.00
2022-12-07T15:52:02.251Z,9.30
2022-12-07T15:54:30.195Z,12.27
2022-12-07T15:56:57.416Z,11.83
2022-12-07T15:59:24.591Z,9.47
2022-12-07T16:01:51.729Z,7.90
2022-12-07T16:04:18.707Z,10.90
2022-12-07T16:06:45.703Z,8.53
2022-12-07T16:09:12.538Z,10.47
2022-12-07T16:11:39.412Z,11.20
2022-12-07T16:14:06.186Z,9.73
2022-12-07T16:16:33.041Z,11.20
2022-12-07T16:18:59.950Z,10.07
2022-12-07T16:21:26.731Z,10.27
2022-12-07T16:23:53.726Z,10.00
2022-12-07T16:26:22.652Z,13.13
2022-12-07T16:28:51.568Z,15.07
2022-12-07T16:31:21.862Z,11.97
2022-12-07T16:33:50.219Z,9.50
2022-12-07T16:36:34.377Z,10.30
2022-12-07T16:39:06.364Z,10.30
2022-12-07T16:41:33.698Z,10.47
2022-12-07T16:44:08.606Z,9.03
2022-12-07T16:46:36.908Z,10.57
2022-12-07T16:49:05.003Z,11.03
2022-12-07T16:51:32.380Z,11.70
2022-12-07T16:53:59.789Z,13.07
2022-12-07T16:56:27.751Z,9.27
2022-12-07T16:58:55.757Z,12.97
2022-12-07T17:01:23.849Z,9.50
2022-12-07T17:03:51.214Z,10.43
2022-12-07T17:06:21.326Z,11.63
2022-12-07T17:08:48.977Z,11.33
2022-12-07T17:11:18.834Z,9.47
2022-12-07T17:14:04.836Z,10.00
2022-12-07T17:16:31.740Z,13.20
2022-12-07T17:18:59.307Z,10.67
2022-12-07T17:21:26.334Z,11.53
2022-12-07T17:23:53.090Z,12.93
2022-12-07T17:26:23.026Z,15.63
2022-12-07T17:28:50.288Z,12.57
2022-12-07T17:31:19.559Z,19.17
2022-12-07T17:33:46.935Z,13.43
2022-12-07T17:36:18.809Z,11.60
2022-12-07T17:38:46.218Z,10.97
2022-12-07T17:41:38.161Z,10.97
2022-12-07T17:44:06.874Z,12.93
2022-12-07T17:46:34.494Z,11.23
2022-12-07T17:49:02.350Z,12.27
2022-12-07T17:51:48.002Z,10.00
2022-12-07T17:54:15.560Z,10.53
2022-12-07T17:56:42.671Z,11.20
2022-12-07T17:59:09.729Z,10.13
2022-12-07T18:01:36.864Z,15.80
2022-12-07T18:04:04.388Z,13.13
2022-12-07T18:06:32.140Z,17.60
2022-12-07T18:08:59.349Z,10.47
2022-12-07T18:11:26.874Z,10.27
2022-12-07T18:13:53.992Z,12.33
2022-12-07T18:16:24.380Z,14.77
2022-12-07T18:18:54.034Z,19.03
2022-12-07T18:21:26.337Z,17.07
2022-12-07T18:23:55.724Z,13.20
2022-12-07T18:26:24.903Z,12.80
2022-12-07T18:28:52.170Z,13.73
2022-12-07T18:31:20.545Z,15.30
2022-12-07T18:33:48.502Z,12.23
2022-12-07T18:36:17.067Z,11.20
2022-12-07T18:38:45.015Z,11.20
2022-12-07T18:41:14.164Z,12.67
2022-12-07T18:43:42.277Z,13.10
2022-12-07T18:46:18.009Z,13.60
2022-12-07T18:48:45.741Z,13.67
2022-12-07T18:51:15.062Z,10.87
2022-12-07T18:53:42.778Z,13.17
2022-12-07T18:56:18.243Z,16.03
2022-12-07T18:59:25.842Z,17.40
2022-12-07T19:01:54.516Z,22.70
2022-12-07T19:04:21.681Z,17.47
2022-12-07T19:06:49.491Z,19.37
2022-12-07T19:09:17.251Z,20.17
2022-12-07T19:11:49.919Z,18.17
2022-12-07T19:14:32.013Z,17.53
2022-12-07T19:17:02.572Z,17.03
2022-12-07T19:19:32.560Z,19.70
2022-12-07T19:21:59.458Z,14.17
2022-12-07T19:24:26.852Z,13.90
2022-12-07T19:26:53.829Z,12.80
2022-12-07T19:29:20.852Z,16.03
2022-12-07T19:31:47.858Z,14.63
2022-12-07T19:34:16.238Z,15.23
2022-12-07T19:36:43.519Z,15.17
2022-12-07T19:39:14.683Z,14.23
2022-12-07T19:41:44.062Z,17.63
2022-12-07T19:44:13.736Z,14.17
2022-12-07T19:46:41.714Z,16.07
2022-12-07T19:49:08.925Z,13.60
2022-12-07T19:51:35.855Z,14.80
2022-12-07T19:54:02.751Z,11.97
2022-12-07T19:56:30.798Z,15.83
2022-12-07T19:59:00.225Z,13.20
2022-12-07T20:01:27.506Z,15.70
2022-12-07T20:03:55.146Z,13.40
2022-12-07T20:06:22.372Z,15.17
2022-12-07T20:08:50.089Z,14.97
2022-12-07T20:11:37.545Z,12.80
2022-12-07T20:14:09.008Z,14.03
2022-12-07T20:16:36.458Z,14.73
2022-12-07T20:19:03.933Z,16.10
2022-12-07T20:21:30.709Z,14.47
2022-12-07T20:24:00.669Z,13.43
2022-12-07T20:26:27.721Z,12.73
2022-12-07T20:28:54.737Z,13.80
2022-12-07T20:31:22.189Z,13.00
2022-12-07T20:33:49.138Z,10.77
2022-12-07T20:36:17.551Z,13.13
2022-12-07T20:38:45.478Z,12.23
2022-12-07T20:41:33.008Z,16.10
2022-12-07T20:44:00.811Z,13.07
2022-12-07T20:46:28.160Z,13.90
2022-12-07T20:48:58.668Z,12.27
2022-12-07T20:51:25.688Z,12.30
2022-12-07T20:53:52.458Z,14.00
2022-12-07T20:56:25.379Z,15.67
2022-12-07T20:58:52.129Z,15.23
2022-12-07T21:01:19.198Z,11.70
2022-12-07T21:03:46.035Z,14.00
2022-12-07T21:06:14.703Z,11.47
2022-12-07T21:08:48.898Z,15.63
2022-12-07T21:11:16.750Z,13.53
2022-12-07T21:13:44.280Z,14.37
2022-12-07T21:16:16.712Z,13.07
2022-12-07T21:18:45.302Z,17.83
2022-12-07T21:21:12.279Z,19.50
2022-12-07T21:23:39.152Z,16.43
2022-12-07T21:26:17.709Z,20.90
2022-12-07T21:28:44.773Z,21.97
2022-12-07T21:31:13.385Z,25.83
2022-12-07T21:33:41.782Z,21.40
2022-12-07T21:36:10.353Z,20.77
2022-12-07T21:38:37.517Z,13.90
2022-12-07T21:41:12.919Z,18.77
2022-12-07T21:43:40.049Z,16.90
2022-12-07T21:46:07.091Z,13.63
2022-12-07T21:48:34.008Z,14.03
2022-12-07T21:51:05.869Z,14.57
2022-12-07T21:53:32.759Z,14.03
2022-12-07T21:55:59.525Z,15.30
2022-12-07T21:58:26.285Z,18.63
2022-12-07T22:00:53.046Z,13.57
2022-12-07T22:03:19.864Z,13.33
2022-12-07T22:05:46.661Z,14.27
2022-12-07T22:08:13.461Z,12.93
2022-12-07T22:10:40.337Z,13.97
2022-12-07T22:13:07.132Z,12.57
2022-12-07T22:15:33.926Z,13.40
2022-12-07T22:18:00.652Z,15.00
2022-12-07T22:20:27.408Z,16.13
2022-12-07T22:22:54.168Z,14.30
2022-12-07T22:25:20.936Z,13.30
2022-12-07T22:27:47.829Z,29.37
2022-12-07T22:30:14.711Z,18.83
2022-12-07T22:32:49.601Z,12.60
2022-12-07T22:35:16.875Z,14.50
2022-12-07T22:37:43.645Z,15.07
2022-12-07T22:40:11.091Z,18.10
2022-12-07T22:42:37.898Z,14.17
2022-12-07T22:45:05.089Z,16.03
2022-12-07T22:47:32.093Z,15.93
2022-12-07T22:49:59.798Z,15.27
2022-12-07T22:52:26.559Z,16.33
2022-12-07T22:54:53.284Z,16.27
2022-12-07T22:57:20.408Z,13.30
2022-12-07T22:59:47.130Z,15.00
2022-12-07T23:02:13.994Z,14.93
2022-12-07T23:04:40.877Z,15.47
2022-12-07T23:07:07.724Z,15.37
2022-12-07T23:09:34.523Z,16.60
2022-12-07T23:12:19.870Z,16.23
2022-12-07T23:14:46.642Z,14.30
2022-12-07T23:17:13.467Z,14.57
2022-12-07T23:19:40.262Z,15.03
2022-12-07T23:22:07.083Z,12.53
2022-12-07T23:24:33.830Z,10.90
2022-12-07T23:27:00.656Z,15.77
2022-12-07T23:29:27.796Z,11.93
2022-12-07T23:31:54.626Z,12.63
2022-12-07T23:34:21.448Z,10.40
2022-12-07T23:36:48.221Z,13.17
2022-12-07T23:39:14.990Z,11.63
2022-12-07T23:41:41.816Z,12.87
2022-12-07T23:44:08.899Z,11.07
2022-12-07T23:46:36.107Z,11.53
2022-12-07T23:49:04.889Z,15.03
2022-12-07T23:51:32.225Z,13.23
2022-12-07T23:54:00.743Z,14.43
2022-12-07T23:56:29.615Z,13.53
2022-12-07T23:58:57.535Z,13.77
